Author HAARP Hit Japan Theory  (Read 5281 times)

0 Members and 1 Guest are viewing this topic.

HAARP Hit Japan Theory
« on: April 28, 2014, 03:29:18 AM »
Fran De Aquino
Maranhao State University, Physics Department, S.Luis/MA, Brazil.
Copyright 2011 by Fran De Aquino. All Rights Reserved
High-power ELF radiation generated by modulated HF heating of the
ionosphere can cause Earthquakes, Cyclones and localized heating

Quote
On March 11, 2011, a magnitude-9 earthquake shook northeastern Japan, unleashing a savage tsunami.

The effects of the great earthquake were felt around the world, from Norway's fjords to Antarctica's ice sheet. Tsunami debris continues to wash up on North American beaches two years later.

Its quite simple heat up the ionosphere above Haarp with 3.6 MW to 5.1 GW of energy from an East West configuration; then the ions travel via magnetic field force lines above Haarp's Cone to the target. Then wait till Japan has a ionic charge over its nuclear facility for a period of time!

The elf wave guide then travels down into the core of earth and charges up the field at light speed causing a resonating effect with earth's asthenosphere and rigid lithosphere.



United States Secretary of Defense William Cohen stated in a press briefing, while commenting on new technological threats possibly held by terrorist organizations: "Others are engaging in an eco-type of terrorism whereby they can alter the climate, set off earthquakes, (and) volcanoes remotely, using the use of electromagnetic waves." Dr Begich's news release adds: "While the Secretary of Defense suggests this capability might be possessed by terrorist organizations, the U.S. military continues to deny that they also control such technology."
-Dr. Nick Begich


Quote
HAARP causes strange cloud formations and wave patterns. These clouds were noticed in Japan days before and after the Tsunami and quake.
http://snippits-and-slappits.blogspot.com/2012/11/fukushima-asian-911.html


Quote
MIT has looked into it as well as has found rapid unnatural heating of the atmosphere above Japan near the quake.
Plates become disturbed and with in 5-7 days of constant heating an earthquake will occur.



Before you disregard my theory look at these statistics.  As I believe the flexible asthenosphere
works in conjunction with the rigid lithosphere when artificial elf waves continue to target a specific latitude and longitude of earth especially at 10km.

10 Km Earthquake Data for 1970-71 before HAARP yet Arecibo is online

DATE_TIME LAT    LON DEP   MAG   MT   SC
--------------------------------------------------------------------------
1970-11-18 20:10:56.00   -28.783   -112.806    10.0   5.8   ms   centennial


10 Km Earthquake Data for 1990-91 A greater degree of artificial elf waves present
DATE_TIME LAT    LON DEP   MAG   MT   SC
--------------------------------------------------------------------------
1991-08-15 06:50:35.73   -45.558    -72.233    10.0   5.5   mb   pde
1991-08-13 02:11:16.36    52.791    -34.944    10.0   5.5   mw   pde
1991-07-27 09:39:32.80    1.831    -90.555    10.0   5.7   mw   pde
1991-07-17 16:41:24.83    -3.989   -104.094    10.0   5.7   mw   pde
1991-07-17 07:12:09.39    50.935   -130.162    10.0   5.5   mw   pde
1991-06-30 03:08:14.27   -14.371    -13.562    10.0   5.7   mw   pde
1991-06-30 01:44:12.87   -21.621   -114.234    10.0   5.5   mw   pde
1991-06-27 19:42:41.19    24.361   -108.233    10.0   5.5   mw   pde
1991-06-24 04:59:04.30    58.318   -137.008    10.0   5.6   mw   pde
1991-06-16 20:37:20.31    15.080    120.585    10.0   5.5   mb   pde
1991-06-15 20:23:21.96    0.535    -25.452    10.0   5.7   mw   pde
1991-06-15 11:15:28.01    15.119    120.355    10.0   5.6   mw   pde
1991-06-15 10:41:14.24    15.316    120.522    10.0   5.7   mw   pde
1991-06-03 05:05:14.80   -40.022    -74.801    10.0   5.6   mw   pde
1991-05-31 22:17:35.79   -56.837   -140.932    10.0   5.6   mw   pde
1991-05-27 18:40:27.97    9.482    -82.694    10.0   5.7   mw   pde
1991-05-12 16:12:37.10    12.279    47.487    10.0   5.5   mw   pde
1991-05-03 20:19:38.86    42.683    43.247    10.0   5.6   mw   pde
1991-04-01 05:03:58.70    22.359   -106.994    10.0   5.6   mw   pde
1991-03-08 11:41:02.62    61.029    167.003    10.0   5.6   mb   pde
1991-02-13 06:17:23.07   -44.361    -79.529    10.0   5.7   mw   pde
1991-02-05 03:53:25.37   -24.343   -115.893    10.0   5.5   mw   pde
1991-02-01 17:14:53.62   -57.067   -141.111    10.0   5.7   mw   pde
1991-01-29 03:13:13.35   -44.159    94.223    10.0   5.6   mw   pde
1990-12-25 07:51:10.30   -40.732    -85.765    10.0   5.7   mw   pde
1990-12-19 23:38:35.65    23.669    121.606    10.0   5.5   mw   pde
1990-12-19 00:20:24.78    23.701    121.579    10.0   5.6   mw   pde
1990-12-17 11:00:32.00    7.058    -81.966    10.0   6.0   ms   centennial
1990-11-01 06:06:53.25    -4.479   -104.735    10.0   5.5   mw   pde
1990-10-29 06:42:41.71   -55.981   -143.243    10.0   5.5   mw   pde
1990-10-29 06:19:12.00   -63.556    172.141    10.0   5.5   ms   centennial
1990-10-29 05:47:27.98   -63.653    172.650    10.0   5.5   mw   pde
1990-10-06 09:08:09.18    -2.711    67.908    10.0   5.7   mw   pde
1990-09-26 15:40:42.43   -36.190   -100.795    10.0   5.6   mw   pde
1990-09-15 23:07:42.86    64.655    -17.617    10.0   5.6   mw   pde
1990-09-14 20:40:18.35    13.382    51.456    10.0   5.5   mw   pde
1990-09-12 15:28:35.53    15.120    59.267    10.0   5.5   mw   pde
1990-09-07 00:12:26.21    5.443    31.686    10.0   5.6   mw   pde
1990-09-02 10:06:52.08   -41.210    -90.129    10.0   5.6   mw   pde
1990-08-30 18:33:00.87    6.146    -82.634    10.0   5.5   mw   pde
1990-08-26 07:53:41.69    19.592    -77.874    10.0   5.5   mw   pde
1990-08-25 11:47:31.24    5.792    -77.504    10.0   5.6   mw   pde
1990-08-19 17:44:58.79   -34.597   -107.776    10.0   5.7   mw   pde
1990-08-12 00:35:03.21    0.964    -28.808    10.0   5.5   mw   pde
1990-08-10 21:11:49.04    6.572    60.240    10.0   5.5   mw   pde

10 Km Earthquake Data for 2010-11  HAARP, Arecibo and other Ionshpere Intrusion Devices online

DATE_TIME LAT    LON DEP   MAG   MT   SC
--------------------------------------------------------------------------
2011-08-14 01:29:39.34    -1.337    -14.653    10.0   5.6   mwb   pde
2011-08-11 10:06:29.35    39.955    77.028    10.0   5.6   mww   pde
2011-08-10 23:45:43.04    -7.040    -12.618    10.0   6.0   mww   pde
2011-08-05 16:08:45.58   -29.989   -176.728    10.0   5.7   mwc   pde
2011-08-03 22:39:23.01    -5.045    148.161    10.0   5.7   mww   pde
2011-07-31 23:38:56.61    -3.518    144.828    10.0   6.6   mww   pde
2011-07-31 14:34:47.32   -17.016    171.579    10.0   6.1   mww   pde
2011-07-27 23:00:30.32    10.801    -43.393    10.0   5.9   mww   pde
2011-07-26 14:26:22.87    -9.230    67.113    10.0   5.8   mww   pde
2011-07-25 00:50:47.59    -3.182    150.611    10.0   6.3   mww   pde
2011-07-21 23:01:42.51   -62.496    164.452    10.0   6.0   mww   pde
2011-07-15 13:26:02.95   -60.762    -23.523    10.0   6.1   mww   pde
2011-07-14 08:52:31.57   -38.237    -93.772    10.0   5.5   mwc   pde
2011-07-11 15:51:23.50   -49.928   -114.076    10.0   5.7   mwc   pde
2011-07-10 18:47:15.69   -15.418   -176.083    10.0   5.7   mwc   pde
2011-07-09 07:08:18.82   -21.160   -174.638    10.0   5.6   mwc   pde
2011-07-08 05:53:03.81    0.961    -26.419    10.0   5.6   mwc   pde
2011-07-07 09:10:50.24   -28.978   -176.711    10.0   5.7   mwc   pde
2011-07-06 20:35:38.86   -29.565   -176.249    10.0   5.6   mb   pde
2011-07-06 15:14:59.03    36.372    141.618    10.0   5.7   mww   pde
2011-06-27 20:04:16.36   -63.577    170.802    10.0   5.5   mwc   pde
2011-06-19 11:05:29.56   -54.889   -129.493    10.0   5.5   mwc   pde
2011-06-19 00:20:03.80    -5.963    -80.976    10.0   5.5   mwb   pde
2011-06-17 09:16:12.57    13.303    41.732    10.0   5.6   mwb   pde
2011-06-14 13:06:51.54    37.725    143.516    10.0   5.7   mww   pde
2011-06-12 20:32:40.49    13.414    41.735    10.0   5.6   mww   pde
2011-06-10 15:32:48.91    -6.730   -122.738    10.0   5.5   mb   pde
2011-06-07 05:18:32.43   -44.176    -16.039    10.0   5.6   mwc   pde
2011-06-03 16:00:13.86    37.061    140.903    10.0   5.5   mww   pde
2011-05-17 10:35:26.96   -15.645   -175.221    10.0   5.7   mww   pde
2011-05-16 19:18:20.57   -20.431    168.346    10.0   5.5   mb   pde
2011-05-15 13:08:13.06    0.569    -25.647    10.0   6.1   mww   pde
2011-05-13 03:36:50.49   -59.438   -151.353    10.0   5.7   mwc   pde
2011-05-11 08:19:33.48   -20.298    168.349    10.0   5.6   mww   pde
2011-05-10 16:45:45.11    -4.702   -105.515    10.0   5.5   mwc   pde
2011-05-10 15:05:22.18    -4.742   -105.594    10.0   5.5   mwc   pde
2011-05-10 10:44:07.40   -20.311    168.451    10.0   5.5   mb   pde
2011-05-10 10:24:17.47   -20.272    168.397    10.0   5.9   mwc   pde
2011-05-09 20:15:53.40    37.738    143.537    10.0   5.6   mwc   pde
2011-05-05 23:21:22.10    26.124    128.398    10.0   5.5   mww   pde
2011-05-02 13:20:57.22   -15.483   -174.343    10.0   5.5   mwc   pde
2011-04-28 13:07:43.85    10.129   -103.614    10.0   5.8   mww   pde
2011-04-24 22:44:15.80   -35.420    -16.958    10.0   5.6   mww   pde
2011-04-24 21:09:32.69   -35.704    -16.994    10.0   5.6   mww   pde
2011-04-21 00:39:03.21    40.341    143.549    10.0   5.7   mww   pde
2011-04-14 06:08:47.34    35.560    141.881    10.0   5.7   mww   pde
2011-04-11 11:42:35.13    36.980    140.356    10.0   5.5   mwr   pde
2011-04-11 08:16:50.91    37.791    140.812    10.0   5.8   mb   pde
2011-03-26 22:49:41.47   -15.851   -179.406    10.0   6.0   mww   pde
2011-03-24 15:54:35.15    20.650    99.770    10.0   5.7   mwc   pde
2011-03-22 12:01:22.42    36.866    143.188    10.0   5.6   mwc   pde
2011-03-17 08:03:00.79   -17.266    167.899    10.0   5.8   mww   pde
2011-03-16 03:52:02.97    35.747    140.710    10.0   5.7   mww   pde
2011-03-12 17:19:23.85    36.517    142.482    10.0   5.8   mwb   pde
2011-03-12 09:51:35.31    -3.840    151.453    10.0   5.6   mwc   pde
2011-03-11 19:46:50.88    40.483    139.055    10.0   6.2   mwc   pde
2011-03-11 10:22:02.63    36.665    142.521    10.0   5.7   mb   pde
2011-03-11 00:14:48.33   -53.210   -117.837    10.0   5.7   mwc   pde
2011-03-10 04:58:13.75    24.727    97.957    10.0   5.5   mwc   pde
2011-03-04 04:07:48.62    -8.933    157.236    10.0   5.6   mww   pde
2011-03-01 00:53:46.34   -29.701   -111.981    10.0   6.0   mww   pde
2011-02-28 11:04:16.49   -59.233    -17.012    10.0   5.6   mwc   pde
2011-02-12 03:03:04.28   -31.241   -177.809    10.0   5.6   mwc   pde
2011-02-12 02:53:15.10    0.079    -17.018    10.0   5.7   mwc   pde
2011-02-04 14:20:55.49   -14.188    166.459    10.0   5.9   mwc   pde
2011-02-03 20:25:15.89   -15.511   -173.068    10.0   5.9   mww   pde
2011-01-29 11:58:17.80   -62.964   -164.221    10.0   5.5   mwb   pde
2011-01-27 08:38:28.34    28.195    59.015    10.0   6.2   mww   pde
2011-01-13 16:43:07.73   -20.606    168.399    10.0   5.9   mwc   pde
2011-01-09 18:21:06.85   -19.297    168.009    10.0   5.5   mwc   pde
2011-01-09 14:54:43.20   -19.296    168.407    10.0   5.5   mwb   pde
2011-01-09 13:00:14.21   -19.336    168.435    10.0   5.7   mwc   pde
2011-01-07 01:19:16.70    20.114    -45.617    10.0   5.5   mwc   pde
2011-01-03 16:43:28.67   -59.791    149.897    10.0   5.6   mwc   pde
2010-12-31 16:30:54.52    0.663    -26.045    10.0   5.5   mwc   pde
2010-12-30 14:36:54.56   -10.819    165.376    10.0   5.6   mwb   pde
2010-12-29 07:02:17.34   -19.701    168.123    10.0   5.5   mb   pde
2010-12-27 19:40:12.65   -19.311    167.960    10.0   5.5   mwc   pde
2010-12-27 17:02:32.88   -50.811    139.375    10.0   5.6   mwc   pde
2010-12-26 19:38:21.44   -19.636    168.261    10.0   5.5   mwc   pde
2010-12-25 19:42:23.70    51.115   -176.162    10.0   5.6   mwb   pde
2010-12-25 13:59:02.04   -19.307    168.002    10.0   5.5   mb   pde
2010-12-22 01:31:17.86    26.669    143.535    10.0   5.6   mwc   pde
2010-12-21 20:18:43.49    27.096    143.236    10.0   5.6   ms   pde
2010-12-21 17:40:47.59    27.080    143.215    10.0   5.5   mb   pde
2010-12-20 15:15:08.67    10.171   -103.977    10.0   5.9   mwc   pde
2010-12-10 17:48:21.50    23.863    -45.733    10.0   5.5   mwc   pde
2010-12-08 08:21:33.53    39.358    72.860    10.0   5.5   mwc   pde
2010-12-07 05:31:03.85   -58.019    -7.503    10.0   5.7   mwc   pde
2010-12-07 04:27:22.04   -57.932    -7.474    10.0   5.9   mwc   pde
2010-11-27 02:44:52.69    10.293    -43.128    10.0   5.7   mwc   pde
2010-11-22 16:18:43.44   -33.625   -178.918    10.0   5.9   mwb   pde
2010-11-21 04:36:31.44   -54.967   -131.479    10.0   6.0   mwc   pde
2010-11-16 18:44:38.33    -3.005    68.125    10.0   5.5   mwc   pde
2010-11-14 17:02:47.69    11.865    43.716    10.0   5.5   mwc   pde
2010-11-14 06:32:27.98    11.984    43.963    10.0   5.5   mwb   pde
2010-11-12 19:01:29.97   -35.958   -102.210    10.0   5.8   mwb   pde
2010-11-10 04:05:24.41   -45.464    96.394    10.0   6.5   mwc   pde
2010-11-05 16:40:36.92    12.736    123.054    10.0   5.8   mwc   pde
2010-11-03 11:18:15.57    -4.617    134.071    10.0   6.0   mwc   pde
2010-10-31 16:38:49.49    -6.385    150.161    10.0   5.8   mwc   pde
2010-10-30 15:18:33.07   -56.586   -142.292    10.0   6.4   mwc   pde
2010-10-28 02:22:25.27    23.084   -108.454    10.0   5.6   mwc   pde
2010-10-26 02:08:29.18   -41.494    -85.758    10.0   5.6   mwc   pde
2010-10-23 03:09:15.05   -56.700   -141.952    10.0   5.8   mwc   pde
2010-10-20 06:58:13.94    24.471   -109.026    10.0   5.8   mwc   pde
2010-10-20 04:15:34.82    24.466   -109.144    10.0   5.9   mwb   pde
2010-10-20 04:09:42.82    24.540   -109.098    10.0   5.9   mwc   pde
2010-10-12 12:01:07.86   -20.457   -174.205    10.0   5.9   mb   pde
2010-10-03 04:30:15.49   -47.287    100.249    10.0   5.5   mwc   pde
2010-09-29 17:10:51.08    -4.909    133.712    10.0   6.2   mb   pde
2010-09-11 11:43:08.60    7.788    94.057    10.0   5.8   mwc   pde
2010-09-08 17:39:40.48    44.588    149.724    10.0   5.5   mwc   pde
2010-09-08 11:37:31.89   -20.671    169.818    10.0   6.3   mwc   pde
2010-09-08 08:01:17.99   -20.581    169.928    10.0   5.6   mwc   pde
2010-09-07 19:54:28.17   -53.136   -118.171    10.0   5.5   mwc   pde
2010-09-07 12:48:57.38   -14.396   -176.243    10.0   5.5   mwc   pde
2010-09-03 04:19:13.68   -13.941    65.930    10.0   5.7   mwc   pde
2010-08-24 02:11:59.09    18.795   -107.193    10.0   6.2   mwc   pde
2010-08-18 16:28:15.44    12.234    141.514    10.0   6.3   mwc   pde
2010-08-14 16:35:43.95    12.303    141.566    10.0   5.6   mwc   pde
2010-08-14 14:44:32.54    12.307    141.461    10.0   5.6   mwc   pde
2010-08-14 07:31:01.92    12.412    141.634    10.0   5.7   mb   pde
2010-08-14 07:30:16.94    12.348    141.487    10.0   6.2   mwc   pde
2010-08-13 07:58:48.76    36.877    -32.874    10.0   5.5   mwc   pde
http://earthquake.usgs.gov/earthquakes/eqarchives/epic/

Re: HAARP Hit Japan Theory
« Reply #1 on: April 28, 2014, 03:40:35 AM »
Your profound ignorance of cloud formations is probably matched by everything thing else you don't understand or want to understand.

Re: HAARP Hit Japan Theory
« Reply #2 on: April 28, 2014, 03:47:55 AM »
Your profound ignorance of cloud formations is probably matched by everything thing else you don't understand or want to understand.

You better be quick Yorkshire or I will own that pebble :)


Re: HAARP Hit Japan Theory
« Reply #3 on: April 28, 2014, 04:07:14 AM »

You better be quick Yorkshire or I will own that pebble :)


I suggest that instead of looking at fuckwit CT web links you look at meteorology and other science based ones...You might actually learn something.

Re: HAARP Hit Japan Theory
« Reply #4 on: April 28, 2014, 04:22:11 AM »
Quote
look at these statistics.

Here come the nightsweats.

Re: HAARP Hit Japan Theory
« Reply #5 on: April 28, 2014, 04:26:19 AM »

I suggest that instead of looking at fuckwit CT web links you look at meteorology and other science based ones...You might actually learn something.
err hmmm I guess Yorkie and your not a dog bot I hope.  Have you ever heard of chem-trails which magnify the effects of weather and HAARP'S Devastating affect upon which are inherent in the electromagnetic spectrum?  Plz either keep drinking the koolaid or take the red or blue pill.  Is the rabbit hole too deep for you?  You were probably were one of those Coat and Tie corpie Yorkshires mad men of the 60's poor sick puppy.


Re: HAARP Hit Japan Theory
« Reply #6 on: April 28, 2014, 04:28:10 AM »
Here come the nightsweats.

You know bad wolf you really make me laugh :) LMFAO


Re: HAARP Hit Japan Theory
« Reply #8 on: April 28, 2014, 06:17:32 AM »
It would seem to me to be fairly obvious that the antenna array in Alaska, having been built many years ago, was simply the installation at which research and operations took place then.

Consider Moore's Law. They probably have that technology truck-sized now. Maybe palm-sized? Depends on the application, clearly. Whatever it does, it clearly does something, because they wouldn't have built the fucking thing if it did not.

The story I heard, and it is a story that I tend to place credence in, is that a submersible drilled into the continental shelf with an explosive weapon--presumably, nuclear. It was this explosion that triggered the earthquake.

Before I heard that theory, my first impression was that a great many whales got together and used their tails to harmonically induce the earthquake as retaliation for all the whale harpooning that some Japanese have been held responsible for. I mean, like, seriously, what is it with Japan? Dukes, Flukes, Nukes GOOOOOLD!!!

Re: HAARP Hit Japan Theory
« Reply #9 on: April 28, 2014, 08:04:08 AM »
The wall rants have become quite stellar as of late. Has somebody discovered Adderall recently?

Re: HAARP Hit Japan Theory
« Reply #10 on: April 28, 2014, 08:27:59 AM »

Not to mention tiresome and self-absorbed.  I vote we get rid of this shitbag troll.

The wall rants have become quite stellar as of late. Has somebody discovered Adderall recently?

Re: HAARP Hit Japan Theory
« Reply #11 on: April 28, 2014, 10:27:54 AM »
Not to mention tiresome and self-absorbed.  I vote we get rid of this shitbag troll.
just another informative statement by McBag.

Here you go and did u know McBag you can get rid of your hemorrhoids with this..

Re: HAARP Hit Japan Theory
« Reply #12 on: April 28, 2014, 10:45:58 AM »
Looks like someone already found the Adderall....and perhaps some meth too?

Re: HAARP Hit Japan Theory
« Reply #13 on: April 28, 2014, 10:47:15 AM »

I suggest that instead of looking at fuckwit CT web links you look at meteorology and other science based ones  www.enterprisemission.com ...You might actually learn something.

fixed it for you

Re: HAARP Hit Japan Theory
« Reply #14 on: April 28, 2014, 11:11:25 AM »
Looks like someone already found the Adderall....and perhaps some meth too?
This says it all!


Re: HAARP Hit Japan Theory
« Reply #15 on: April 28, 2014, 03:41:52 PM »
This says it all!


So in less than 15 posts you go from epic Dickensian to posting a gif of Walter White flipping off a security camera.  This proves what?


Re: HAARP Hit Japan Theory
« Reply #17 on: April 29, 2014, 11:39:01 AM »
http://www.youtube.com/embed/KH4OnYrZdb0
Really my apologies to everyone here,  I will behave.  I'm just a little eccentric and I do love all you guys and gals here.  I did not mean anything bad, I thought we were all just having fun venting our deeper frustrations to each other which perhaps is a good thing instead of breaking stuff or hurting people physically.  I think we are all mature enough to handle each others insults with a laugh.




Re: HAARP Hit Japan Theory
« Reply #18 on: April 29, 2014, 05:12:15 PM »
Surf's up!!!--Leuren Moret: Fukushima radiation has made Hawaii and Pacific islands unsafe for humans




A thing to remember about insulting one's intelligence--if one takes umbrage, one is correct.

Re: HAARP Hit Japan Theory
« Reply #19 on: May 20, 2014, 02:08:07 PM »

I suggest that instead of looking at fuckwit CT web links you look at meteorology and other science based ones...You might actually learn something.

Thank you.  This times infinity.

Re: HAARP Hit Japan Theory
« Reply #20 on: May 20, 2014, 02:15:02 PM »

Re: HAARP Hit Japan Theory
« Reply #21 on: July 12, 2014, 12:01:26 PM »

I suggest that instead of looking at fuckwit CT web links you look at meteorology and other science based ones...You might actually learn something.
Trajectory info regarding HAARP from a astrophysicist:
x = vt cos θ
y = vt sin θ - g t
v is the velocity (m/sec).
θ is the angle you launch it at
g is the downwards accelaration caused by gravity = 9.81 m/s
t is time in seconds
You can plot the path by keeping track of when it was fired.
Fire at 20 m/s velocity pointing 70 up, and it is now 2 seconds after firing, then the path will be at:
x = vt cos θ = 20 x 2 x cos 70 = 13.7m along
y = vt sin θ - g t = 20 x 2 x sin 70 - x 9.81 x 2 = 37.6 - 19.6 = 18.0m up

Re: HAARP Hit Japan Theory
« Reply #22 on: July 12, 2014, 12:04:16 PM »
Trajectory info regarding HAARP from a astrophysicist:
x = vt cos θ
y = vt sin θ - g t
v is the velocity (m/sec).
θ is the angle you launch it at
g is the downwards accelaration caused by gravity = 9.81 m/s
t is time in seconds
You can plot the path by keeping track of when it was fired.
Fire at 20 m/s velocity pointing 70 up, and it is now 2 seconds after firing, then the path will be at:
x = vt cos θ = 20 x 2 x cos 70 = 13.7m along
y = vt sin θ - g t = 20 x 2 x sin 70 - x 9.81 x 2 = 37.6 - 19.6 = 18.0m up

Go on then genius; what does it mean? ;D

Re: HAARP Hit Japan Theory
« Reply #23 on: July 12, 2014, 12:22:00 PM »
Go on then genius; what does it mean? ;D

I'm working with a HAARP Insider she is a friend and also a whistle blower.

https://www.facebook.com/carlyhill.hill?fref=hovercard

Re: HAARP Hit Japan Theory
« Reply #24 on: July 12, 2014, 07:24:09 PM »
Of course! And it makes sense that all these insiders would confide to a lifeguard because everyone loves the beach!

Re: HAARP Hit Japan Theory
« Reply #25 on: July 12, 2014, 07:26:24 PM »
Of course! And it makes sense that all these insiders would confide to a lifeguard because everyone loves the beach!
You idiot obviously you never heard of Carly Hill

Re: HAARP Hit Japan Theory
« Reply #26 on: July 12, 2014, 07:30:50 PM »
You idiot obviously you never heard of Carly Hill
I've heard of Chapel Hill. In fact I lived there. Sorry did you have a point?

Re: HAARP Hit Japan Theory
« Reply #27 on: July 13, 2014, 11:06:54 AM »
You idiot obviously you never heard of Carly Hill


And you've never heard of Dr Colin Pickering? Really????? Why not?

Re: HAARP Hit Japan Theory
« Reply #28 on: October 28, 2016, 11:30:19 AM »
Surf's up!!!--Leuren Moret: Fukushima radiation has made Hawaii and Pacific islands unsafe for humans ...

DAMN THOSE FUCKERS ! ! ! ...        They contaminated my secret island hideaway  >:(

Re: HAARP Hit Japan Theory
« Reply #29 on: October 28, 2016, 07:38:22 PM »
DAMN THOSE FUCKERS ! ! ! ...        They contaminated my secret island hideaway  >:(

'Tis ok.  Rockall is still radiation free.............